Time;durP1;ratioP1;P1;durP2;ratioP2;P2;SDS_P1;SDS_P2;PMS_P1;PMS_P2;Temp;Humidity;BMP_temperature;BMP_pressure;BME280_temperature;BME280_humidity;BME280_pressure;Samples;Min_cycle;Max_cycle;Signal;HPM_P1;HPM_P2
2022/01/07 00:01:35;;;;;;;11.60;3.53;;;2.70;99.90;;;;;;7187425;32;20109;-62
2022/01/07 00:05:37;;;;;;;11.40;3.95;;;2.70;99.90;;;;;;7193984;32;20502;-62
2022/01/07 00:09:39;;;;;;;12.77;3.55;;;2.70;99.90;;;;;;7191563;32;20766;-62
2022/01/07 00:13:42;;;;;;;11.20;3.55;;;2.80;99.90;;;;;;7189036;32;20747;-62
2022/01/07 00:17:44;;;;;;;13.80;3.92;;;2.80;99.90;;;;;;7193797;32;20113;-62
2022/01/07 00:21:46;;;;;;;12.20;3.72;;;2.80;99.90;;;;;;7181712;32;20928;-61
2022/01/07 00:25:49;;;;;;;10.85;3.22;;;2.80;99.90;;;;;;7195230;32;20109;-60
2022/01/07 00:29:50;;;;;;;8.35;2.72;;;2.80;99.90;;;;;;7188334;32;20113;-61
2022/01/07 00:33:52;;;;;;;10.68;3.50;;;2.80;99.90;;;;;;7181210;32;20160;-62
2022/01/07 00:37:54;;;;;;;11.73;3.10;;;2.80;99.90;;;;;;7194191;32;20151;-61
2022/01/07 00:41:55;;;;;;;14.23;3.85;;;2.80;99.90;;;;;;7189387;32;20510;-61
2022/01/07 00:45:57;;;;;;;8.55;3.60;;;2.80;99.90;;;;;;7191419;32;20132;-61
2022/01/07 00:49:59;;;;;;;15.73;3.60;;;2.90;99.90;;;;;;7192720;32;20144;-62
2022/01/07 00:54:01;;;;;;;9.48;3.12;;;2.90;99.90;;;;;;7192012;32;20561;-62
2022/01/07 00:58:03;;;;;;;9.70;3.50;;;2.90;99.90;;;;;;7187401;32;20253;-62
2022/01/07 01:02:05;;;;;;;16.50;3.55;;;2.90;99.90;;;;;;7182264;32;20139;-60
2022/01/07 01:06:15;;;;;;;13.30;3.75;;;2.90;99.90;;;;;;7192941;32;20127;-62
2022/01/07 01:10:19;;;;;;;11.70;3.28;;;2.90;99.90;;;;;;7187234;32;20139;-61
2022/01/07 01:14:21;;;;;;;7.20;3.17;;;2.90;99.90;;;;;;7194199;32;20167;-63
2022/01/07 01:18:23;;;;;;;15.13;4.45;;;3.00;99.90;;;;;;7194223;32;20133;-63
2022/01/07 01:22:25;;;;;;;12.23;3.28;;;3.10;99.90;;;;;;7174381;33;20650;-63
2022/01/07 01:26:26;;;;;;;10.40;3.80;;;3.10;99.90;;;;;;7187624;32;20135;-62
2022/01/07 01:30:31;;;;;;;8.80;4.18;;;3.00;99.90;;;;;;7195656;33;20137;-62
2022/01/07 01:34:33;;;;;;;11.30;3.60;;;3.00;99.90;;;;;;7187442;33;20223;-61
2022/01/07 01:38:35;;;;;;;11.27;3.37;;;3.00;99.90;;;;;;7182680;33;20140;-63
2022/01/07 01:42:37;;;;;;;11.45;3.47;;;3.10;99.90;;;;;;7188606;33;20144;-62
2022/01/07 01:46:39;;;;;;;10.30;4.07;;;3.00;99.90;;;;;;7189893;33;20232;-63
2022/01/07 01:50:40;;;;;;;12.68;3.87;;;3.00;99.90;;;;;;7192898;33;20141;-62
2022/01/07 01:54:45;;;;;;;13.77;4.12;;;2.90;99.90;;;;;;7187460;33;20144;-63
2022/01/07 01:58:47;;;;;;;10.73;3.53;;;2.80;99.90;;;;;;7183303;33;20490;-63
2022/01/07 02:02:49;;;;;;;11.23;4.15;;;2.90;99.90;;;;;;7187792;33;20113;-62
2022/01/07 02:06:51;;;;;;;10.57;3.50;;;2.90;99.90;;;;;;7188759;33;20110;-62
2022/01/07 02:10:54;;;;;;;13.25;4.28;;;2.90;99.90;;;;;;7189493;33;20192;-63
2022/01/07 02:14:56;;;;;;;10.57;4.47;;;2.90;99.90;;;;;;7192020;33;20109;-61
2022/01/07 02:18:59;;;;;;;13.38;4.40;;;2.90;99.90;;;;;;7191777;33;20121;-61
2022/01/07 02:23:01;;;;;;;11.85;4.25;;;2.90;99.90;;;;;;7192697;32;20524;-61
2022/01/07 02:27:03;;;;;;;14.85;4.37;;;2.90;99.90;;;;;;7195261;32;20113;-61
2022/01/07 02:31:05;;;;;;;11.77;4.55;;;2.90;99.90;;;;;;7194368;32;20318;-62
2022/01/07 02:35:08;;;;;;;15.85;4.62;;;2.90;99.90;;;;;;7199786;32;20472;-61
2022/01/07 02:39:10;;;;;;;10.10;4.07;;;2.90;99.90;;;;;;7191001;32;20560;-61
2022/01/07 02:43:12;;;;;;;11.05;4.37;;;2.80;99.90;;;;;;7197156;32;20527;-62
2022/01/07 02:47:16;;;;;;;16.02;5.28;;;2.70;99.90;;;;;;7193809;32;20246;-61
2022/01/07 02:51:17;;;;;;;11.68;3.83;;;2.60;99.90;;;;;;7193989;32;20506;-61
2022/01/07 02:55:22;;;;;;;8.48;3.47;;;2.60;99.90;;;;;;7195743;32;20217;-61
2022/01/07 02:59:24;;;;;;;8.52;4.43;;;2.60;99.90;;;;;;7195829;32;20778;-61
2022/01/07 03:03:25;;;;;;;21.23;5.12;;;2.50;99.90;;;;;;7196643;32;20220;-61
2022/01/07 03:07:28;;;;;;;11.73;4.75;;;2.50;99.90;;;;;;7197574;32;20113;-61
2022/01/07 03:11:31;;;;;;;8.75;4.47;;;2.50;99.90;;;;;;7194712;32;20466;-61
2022/01/07 03:15:35;;;;;;;12.15;4.65;;;2.40;99.90;;;;;;7196019;32;20491;-61
2022/01/07 03:19:37;;;;;;;9.88;4.65;;;2.30;99.90;;;;;;7198869;32;20476;-61
2022/01/07 03:23:40;;;;;;;16.12;4.95;;;2.30;99.90;;;;;;7183925;32;20156;-61
2022/01/07 03:27:42;;;;;;;14.82;5.60;;;2.30;99.90;;;;;;7193110;32;20132;-62
2022/01/07 03:31:44;;;;;;;10.52;5.05;;;2.30;99.90;;;;;;7186685;32;20217;-62
2022/01/07 03:35:46;;;;;;;10.57;5.28;;;2.30;99.90;;;;;;7188951;32;20135;-61
2022/01/07 03:39:48;;;;;;;8.98;4.60;;;2.30;99.90;;;;;;7184162;32;20145;-62
2022/01/07 03:43:49;;;;;;;10.10;5.03;;;2.20;99.90;;;;;;7187930;32;20109;-61
2022/01/07 03:47:52;;;;;;;11.82;5.03;;;2.10;99.90;;;;;;7187325;32;20671;-61
2022/01/07 03:51:54;;;;;;;12.93;4.75;;;2.20;99.90;;;;;;7194747;32;20239;-61
2022/01/07 03:55:55;;;;;;;12.52;5.15;;;2.10;99.90;;;;;;7189641;32;20216;-61
2022/01/07 03:59:57;;;;;;;12.02;4.97;;;2.10;99.90;;;;;;7185373;32;20133;-61
2022/01/07 04:03:59;;;;;;;14.90;5.00;;;2.10;99.90;;;;;;7187984;32;20113;-62
2022/01/07 04:08:00;;;;;;;11.65;4.75;;;2.10;99.90;;;;;;7191080;32;20355;-61
2022/01/07 04:12:03;;;;;;;12.13;4.95;;;2.10;99.90;;;;;;7188900;32;20146;-61
2022/01/07 04:16:05;;;;;;;9.88;5.10;;;2.10;99.90;;;;;;7187690;32;20136;-61
2022/01/07 04:20:09;;;;;;;7.90;4.80;;;2.10;99.90;;;;;;7193508;32;20461;-62
2022/01/07 04:24:11;;;;;;;9.10;5.30;;;2.10;99.90;;;;;;7185712;32;20263;-62
2022/01/07 04:28:13;;;;;;;12.27;5.45;;;2.10;99.90;;;;;;7185014;32;20132;-62
2022/01/07 04:32:14;;;;;;;14.90;5.57;;;2.00;99.90;;;;;;7193802;32;20587;-61
2022/01/07 04:36:17;;;;;;;10.73;5.07;;;2.00;99.90;;;;;;7194413;32;20271;-62
2022/01/07 04:40:19;;;;;;;10.52;4.60;;;2.10;99.90;;;;;;7194770;32;20120;-62
2022/01/07 04:44:21;;;;;;;11.77;4.62;;;2.10;99.90;;;;;;7190923;32;20192;-61
2022/01/07 04:48:23;;;;;;;11.27;5.10;;;2.00;99.90;;;;;;7191524;32;20142;-61
2022/01/07 04:52:24;;;;;;;8.30;4.72;;;2.10;99.90;;;;;;7191234;32;20529;-61
2022/01/07 04:56:26;;;;;;;11.50;4.72;;;2.10;99.90;;;;;;7193996;32;20135;-61
2022/01/07 05:00:28;;;;;;;9.57;4.78;;;2.20;99.90;;;;;;7191027;32;20124;-61
2022/01/07 05:04:30;;;;;;;11.45;4.85;;;2.20;99.90;;;;;;7184446;32;20204;-62
2022/01/07 05:08:31;;;;;;;12.80;4.62;;;2.20;99.90;;;;;;7192922;32;20128;-62
2022/01/07 05:12:33;;;;;;;8.60;3.83;;;2.30;99.90;;;;;;7178255;32;20117;-60
2022/01/07 05:16:34;;;;;;;8.82;3.65;;;2.20;99.90;;;;;;7194409;32;20235;-61
2022/01/07 05:20:36;;;;;;;15.98;5.25;;;2.20;99.90;;;;;;7195754;32;20727;-61
2022/01/07 05:24:38;;;;;;;7.70;4.10;;;2.20;99.90;;;;;;7194450;32;20242;-61
2022/01/07 05:28:39;;;;;;;12.37;4.03;;;2.10;99.90;;;;;;7191710;33;20299;-61
2022/01/07 05:32:41;;;;;;;12.80;4.53;;;2.10;99.90;;;;;;7195017;33;20117;-61
2022/01/07 05:36:43;;;;;;;13.10;4.30;;;2.10;99.90;;;;;;7193178;33;20148;-61
2022/01/07 05:40:45;;;;;;;14.20;4.90;;;2.00;99.90;;;;;;7189665;32;20785;-61
2022/01/07 05:44:46;;;;;;;11.02;4.80;;;1.90;99.90;;;;;;7191629;32;20109;-61
2022/01/07 05:48:48;;;;;;;8.93;3.65;;;1.90;99.90;;;;;;7191880;33;20236;-61
2022/01/07 05:52:50;;;;;;;9.73;4.65;;;1.90;99.90;;;;;;7186883;33;20144;-61
2022/01/07 05:56:51;;;;;;;5.47;2.78;;;1.80;99.90;;;;;;7183894;32;20117;-60
2022/01/07 06:00:53;;;;;;;9.50;3.97;;;1.70;99.90;;;;;;7187805;32;20310;-61
2022/01/07 06:04:55;;;;;;;12.13;4.37;;;1.70;99.90;;;;;;7189244;32;20221;-62
2022/01/07 06:08:57;;;;;;;11.88;4.40;;;1.60;99.90;;;;;;7192096;32;20132;-61
2022/01/07 06:12:58;;;;;;;12.57;4.60;;;1.60;99.90;;;;;;7190637;32;20141;-61
2022/01/07 06:17:00;;;;;;;12.07;4.50;;;1.50;99.90;;;;;;7198397;32;20121;-61
2022/01/07 06:21:02;;;;;;;7.72;4.95;;;1.40;99.90;;;;;;7194685;32;20229;-61
2022/01/07 06:25:05;;;;;;;13.23;4.75;;;1.40;99.90;;;;;;7195731;32;20271;-61
2022/01/07 06:29:06;;;;;;;7.80;4.62;;;1.30;99.90;;;;;;7194222;32;20117;-61
2022/01/07 06:33:08;;;;;;;9.52;4.68;;;1.40;99.90;;;;;;7178195;32;20385;-61
2022/01/07 06:37:12;;;;;;;10.90;5.50;;;1.50;99.90;;;;;;7180829;32;20136;-61
2022/01/07 06:41:13;;;;;;;16.67;6.70;;;1.50;99.90;;;;;;7196261;32;20105;-61
2022/01/07 06:45:15;;;;;;;12.93;5.53;;;1.50;99.90;;;;;;7183534;32;20236;-62
2022/01/07 06:49:17;;;;;;;11.98;5.80;;;1.50;99.90;;;;;;7186925;32;20109;-62
2022/01/07 06:53:18;;;;;;;12.75;6.47;;;1.50;99.90;;;;;;7190003;32;20318;-61
2022/01/07 06:57:30;;;;;;;13.68;6.37;;;1.50;99.90;;;;;;7188569;32;20145;-62
2022/01/07 07:01:32;;;;;;;14.65;6.60;;;1.50;99.90;;;;;;7197572;32;20141;-61
2022/01/07 07:05:33;;;;;;;13.45;5.80;;;1.60;99.90;;;;;;7184349;32;20130;-62
2022/01/07 07:09:35;;;;;;;13.55;5.60;;;1.70;99.90;;;;;;7194788;32;20924;-61
2022/01/07 07:13:37;;;;;;;10.32;5.40;;;1.80;99.90;;;;;;7188310;32;20121;-61
2022/01/07 07:17:39;;;;;;;11.95;5.62;;;1.80;99.90;;;;;;7185688;32;20141;-61
2022/01/07 07:21:42;;;;;;;13.70;5.47;;;1.90;99.90;;;;;;7197738;32;20450;-61
2022/01/07 07:25:43;;;;;;;12.07;5.62;;;1.90;99.90;;;;;;7178547;32;20541;-61
2022/01/07 07:29:46;;;;;;;11.38;5.60;;;1.80;99.90;;;;;;7182478;32;20208;-61
2022/01/07 07:37:50;;;;;;;9.90;5.07;;;2.00;99.90;;;;;;7188557;32;20239;-66
2022/01/07 07:41:52;;;;;;;9.70;5.32;;;2.00;99.90;;;;;;7196478;32;20137;-66
2022/01/07 07:45:59;;;;;;;14.13;5.03;;;2.10;99.90;;;;;;7194189;32;20151;-67
2022/01/07 07:50:02;;;;;;;8.52;4.62;;;2.10;99.90;;;;;;7189164;32;20796;-67
2022/01/07 07:54:05;;;;;;;10.10;5.43;;;2.10;99.90;;;;;;7192799;32;20165;-67
2022/01/07 07:58:07;;;;;;;10.50;4.70;;;2.20;99.90;;;;;;7192670;32;20109;-67
2022/01/07 08:02:09;;;;;;;11.73;4.90;;;2.20;99.90;;;;;;7195989;32;20128;-67
2022/01/07 08:06:12;;;;;;;8.95;4.68;;;2.20;99.90;;;;;;7177369;32;20140;-66
2022/01/07 08:10:20;;;;;;;12.05;4.82;;;2.30;99.90;;;;;;7187620;32;20458;-66
2022/01/07 08:18:43;;;;;;;10.98;4.95;;;2.40;99.90;;;;;;7191937;32;20202;-67
2022/01/07 08:22:44;;;;;;;8.95;4.43;;;2.40;99.90;;;;;;7179152;32;20510;-66
2022/01/07 08:26:46;;;;;;;9.10;4.47;;;2.50;99.90;;;;;;7170199;32;20146;-67
2022/01/07 08:35:11;;;;;;;9.95;4.00;;;2.60;99.90;;;;;;7195591;32;20768;-66
2022/01/07 08:39:12;;;;;;;9.55;4.15;;;2.70;99.90;;;;;;7194012;32;20136;-65
2022/01/07 08:43:14;;;;;;;6.28;3.90;;;2.80;99.90;;;;;;7192873;32;20128;-65
2022/01/07 08:47:16;;;;;;;7.80;3.67;;;2.80;99.90;;;;;;7192955;32;20131;-68
2022/01/07 08:51:18;;;;;;;11.00;4.10;;;2.90;99.90;;;;;;7189642;32;20117;-65
2022/01/07 08:55:25;;;;;;;8.57;3.78;;;3.00;99.90;;;;;;7175439;32;20235;-66
2022/01/07 08:59:26;;;;;;;6.15;3.12;;;2.90;99.90;;;;;;7191718;32;20120;-66
2022/01/07 09:03:28;;;;;;;6.93;2.92;;;3.10;99.90;;;;;;7190348;32;20117;-66
2022/01/07 09:07:30;;;;;;;8.70;3.35;;;3.30;99.90;;;;;;7194404;32;20131;-65
2022/01/07 09:11:31;;;;;;;6.30;2.85;;;3.30;99.90;;;;;;7180275;32;20113;-65
2022/01/07 09:15:33;;;;;;;4.90;2.03;;;3.40;99.90;;;;;;7193723;32;20117;-66
2022/01/07 09:19:35;;;;;;;3.20;1.65;;;3.40;99.90;;;;;;7172782;32;20973;-66
2022/01/07 09:23:41;;;;;;;3.75;1.60;;;3.60;99.90;;;;;;7187217;32;20126;-66
2022/01/07 09:27:43;;;;;;;4.45;1.60;;;3.70;99.90;;;;;;7179850;33;20125;-66
2022/01/07 09:31:45;;;;;;;2.90;1.55;;;3.70;99.90;;;;;;7173591;32;20323;-66
2022/01/07 09:35:47;;;;;;;4.30;1.60;;;3.80;99.90;;;;;;7180727;32;20453;-61
2022/01/07 09:39:48;;;;;;;3.50;1.45;;;4.00;99.90;;;;;;7184410;32;20109;-66
2022/01/07 09:43:50;;;;;;;5.85;1.67;;;4.00;99.90;;;;;;7189898;32;20244;-66
2022/01/07 09:47:54;;;;;;;3.15;1.20;;;4.00;99.90;;;;;;7199229;32;20208;-66
2022/01/07 09:51:55;;;;;;;1.42;0.95;;;4.00;99.90;;;;;;7178231;32;20224;-65
2022/01/07 09:55:57;;;;;;;4.10;1.62;;;4.00;99.90;;;;;;7177460;32;20209;-66
2022/01/07 10:00:00;;;;;;;4.95;1.73;;;4.00;99.90;;;;;;7196741;32;20238;-66
2022/01/07 10:04:01;;;;;;;4.93;1.90;;;4.10;99.90;;;;;;7190141;32;20122;-67
2022/01/07 10:08:27;;;;;;;3.10;1.62;;;4.20;99.90;;;;;;7189401;32;20160;-66
2022/01/07 10:13:03;;;;;;;3.37;1.30;;;4.20;99.90;;;;;;7189211;32;20148;-67
2022/01/07 10:17:05;;;;;;;2.97;1.15;;;4.10;99.90;;;;;;7195588;32;20916;-66
2022/01/07 10:21:08;;;;;;;4.70;1.30;;;4.20;99.90;;;;;;7195984;32;20159;-66
2022/01/07 10:25:17;;;;;;;3.15;1.40;;;4.20;99.90;;;;;;7193521;32;20817;-67
2022/01/07 10:29:31;;;;;;;3.50;1.40;;;4.20;99.90;;;;;;7190442;32;20143;-67
2022/01/07 10:33:38;;;;;;;3.60;1.10;;;4.30;99.90;;;;;;7193715;32;20106;-67
2022/01/07 10:37:52;;;;;;;2.70;1.23;;;4.30;99.90;;;;;;7198451;32;20131;-66
2022/01/07 10:42:00;;;;;;;3.65;1.55;;;4.30;99.90;;;;;;7193693;32;20237;-66
2022/01/07 10:46:24;;;;;;;3.85;1.15;;;4.40;99.90;;;;;;7193036;32;20109;-67
2022/01/07 10:50:27;;;;;;;1.80;1.08;;;4.40;99.90;;;;;;7195206;32;20227;-67
2022/01/07 10:54:28;;;;;;;3.12;1.23;;;4.30;99.90;;;;;;7194070;32;20734;-67
2022/01/07 10:58:55;;;;;;;2.85;1.02;;;4.40;99.90;;;;;;7193705;32;20135;-66
2022/01/07 11:03:00;;;;;;;3.08;1.17;;;4.50;99.90;;;;;;7191076;32;20109;-65
2022/01/07 11:07:09;;;;;;;2.15;0.98;;;4.50;99.90;;;;;;7189097;32;20229;-65
2022/01/07 11:11:11;;;;;;;2.42;1.30;;;4.60;99.90;;;;;;7197553;32;20121;-65
2022/01/07 11:15:14;;;;;;;2.62;1.30;;;4.50;99.90;;;;;;7197437;32;20275;-66
2022/01/07 11:19:22;;;;;;;3.53;1.45;;;4.60;99.90;;;;;;7190817;32;20214;-66
2022/01/07 11:23:31;;;;;;;3.58;1.37;;;4.70;99.90;;;;;;7196621;32;20121;-66
2022/01/07 11:27:49;;;;;;;2.83;1.20;;;4.70;99.90;;;;;;7197295;32;20124;-66
2022/01/07 11:31:51;;;;;;;2.67;1.40;;;4.70;99.90;;;;;;7197941;32;20151;-65
2022/01/07 11:35:53;;;;;;;2.28;1.30;;;4.70;99.90;;;;;;7196221;32;20113;-66
2022/01/07 11:39:54;;;;;;;6.68;1.80;;;4.80;99.90;;;;;;7191008;32;20113;-66
2022/01/07 11:44:09;;;;;;;3.05;1.73;;;4.80;99.90;;;;;;7194889;32;20212;-66
2022/01/07 11:48:26;;;;;;;5.85;3.05;;;4.80;99.90;;;;;;7198372;32;20109;-67
2022/01/07 11:52:29;;;;;;;3.55;1.37;;;4.90;99.90;;;;;;7187961;32;20165;-66
2022/01/07 11:56:32;;;;;;;5.07;1.52;;;5.00;99.90;;;;;;7185013;32;20494;-66
2022/01/07 12:00:59;;;;;;;2.53;1.52;;;5.00;99.90;;;;;;7191079;32;20669;-66
2022/01/07 12:05:30;;;;;;;4.03;1.40;;;5.00;99.90;;;;;;7174137;32;20134;-66
2022/01/07 12:09:36;;;;;;;4.87;2.37;;;5.00;99.90;;;;;;7172951;32;20271;-66
2022/01/07 12:13:39;;;;;;;5.22;1.83;;;5.00;99.90;;;;;;7193938;32;21425;-67
2022/01/07 12:17:41;;;;;;;3.72;1.40;;;5.00;99.90;;;;;;7185878;32;20601;-66
2022/01/07 12:21:44;;;;;;;7.93;1.92;;;5.00;99.90;;;;;;7183364;32;20764;-67
2022/01/07 12:25:54;;;;;;;8.63;2.00;;;5.00;99.90;;;;;;7171845;32;20227;-66
2022/01/07 12:29:58;;;;;;;4.93;2.50;;;5.10;99.90;;;;;;7183240;32;20268;-67
2022/01/07 12:34:00;;;;;;;8.07;2.40;;;5.10;99.90;;;;;;7179863;32;20120;-66
2022/01/07 12:38:12;;;;;;;7.75;2.65;;;5.10;99.90;;;;;;7185642;32;20217;-66
2022/01/07 12:42:14;;;;;;;5.95;2.17;;;5.20;99.90;;;;;;7192030;32;20109;-65
2022/01/07 12:46:21;;;;;;;7.65;3.92;;;5.20;99.90;;;;;;7188582;32;20230;-65
2022/01/07 12:50:24;;;;;;;3.83;1.42;;;5.30;99.90;;;;;;7195674;32;20179;-65
2022/01/07 12:54:26;;;;;;;5.40;1.50;;;5.40;99.90;;;;;;7189595;32;20234;-67
2022/01/07 12:58:28;;;;;;;8.13;2.47;;;5.40;99.90;;;;;;7187188;32;20117;-67
2022/01/07 13:02:31;;;;;;;5.68;2.80;;;5.40;99.90;;;;;;7186932;32;20105;-67
2022/01/07 13:06:43;;;;;;;8.93;2.70;;;5.40;99.90;;;;;;7185049;32;20167;-65
2022/01/07 13:10:47;;;;;;;4.82;2.08;;;5.50;99.90;;;;;;7184261;32;20227;-66
2022/01/07 13:14:48;;;;;;;14.02;3.62;;;5.60;99.90;;;;;;7184427;32;20251;-67
2022/01/07 13:18:50;;;;;;;6.70;1.70;;;5.60;99.90;;;;;;7192196;32;20457;-66
2022/01/07 13:22:52;;;;;;;11.10;2.75;;;5.60;99.90;;;;;;7186708;32;20147;-66
2022/01/07 13:26:58;;;;;;;7.90;2.60;;;5.50;99.90;;;;;;7188251;32;20145;-66
2022/01/07 13:31:00;;;;;;;8.05;2.35;;;5.60;99.90;;;;;;7187232;33;20537;-67
2022/01/07 13:35:05;;;;;;;6.47;2.60;;;5.50;99.90;;;;;;7177828;33;20295;-66
2022/01/07 13:39:08;;;;;;;9.45;3.10;;;5.50;99.90;;;;;;7189222;33;20164;-67
2022/01/07 13:43:12;;;;;;;5.50;2.75;;;5.50;99.90;;;;;;7172707;33;20170;-67
2022/01/07 13:47:29;;;;;;;6.25;2.33;;;5.10;99.90;;;;;;7182528;33;20113;-67
2022/01/07 13:51:32;;;;;;;3.85;2.05;;;4.90;99.90;;;;;;7183492;33;20181;-66
2022/01/07 13:55:39;;;;;;;;;;;4.70;99.90;;;;;;7185270;32;20247;-68
2022/01/07 13:59:51;;;;;;;4.00;2.30;;;4.60;99.90;;;;;;7190870;32;20008;-66
2022/01/07 14:03:54;;;;;;;5.25;1.33;;;4.60;99.90;;;;;;7187892;32;20135;-67
2022/01/07 14:07:56;;;;;;;2.85;0.93;;;4.40;99.90;;;;;;7184155;32;20137;-67
2022/01/07 14:12:04;;;;;;;7.10;1.60;;;4.30;99.90;;;;;;7183118;32;20121;-67
2022/01/07 14:16:06;;;;;;;4.57;1.83;;;4.20;99.90;;;;;;7179416;33;20110;-67
2022/01/07 14:20:13;;;;;;;5.05;0.82;;;4.10;99.90;;;;;;7189653;32;20152;-58
2022/01/07 14:24:14;;;;;;;3.10;0.45;;;4.00;99.90;;;;;;7179154;32;20117;-60
2022/01/07 14:28:18;;;;;;;4.05;1.48;;;4.20;99.90;;;;;;7187267;32;20204;-65
2022/01/07 14:32:21;;;;;;;2.78;0.60;;;4.00;99.90;;;;;;7192449;32;20485;-66
2022/01/07 14:36:23;;;;;;;8.05;0.80;;;3.80;99.90;;;;;;7199518;32;20560;-65
2022/01/07 14:40:24;;;;;;;1.27;0.40;;;3.70;99.90;;;;;;7188483;32;20149;-65
2022/01/07 14:44:26;;;;;;;3.37;0.57;;;3.60;99.90;;;;;;7191439;32;20328;-64
2022/01/07 14:48:29;;;;;;;3.05;0.77;;;3.60;99.90;;;;;;7194845;32;20483;-66
2022/01/07 14:52:31;;;;;;;2.70;0.60;;;3.60;99.90;;;;;;7191251;32;20251;-65
2022/01/07 14:56:33;;;;;;;3.37;0.88;;;3.60;99.90;;;;;;7193648;32;21839;-60
2022/01/07 15:00:37;;;;;;;2.87;0.70;;;3.50;99.90;;;;;;7197775;32;20278;-60
2022/01/07 15:04:41;;;;;;;2.62;0.50;;;3.60;99.90;;;;;;7188433;32;20121;-66
2022/01/07 15:08:43;;;;;;;4.68;0.60;;;3.60;99.90;;;;;;7196233;32;20155;-66
2022/01/07 15:12:45;;;;;;;2.42;0.60;;;3.60;99.90;;;;;;7192927;32;20220;-66
2022/01/07 15:16:48;;;;;;;5.40;0.80;;;3.80;99.90;;;;;;7185529;32;20196;-66
2022/01/07 15:20:55;;;;;;;3.37;1.23;;;3.60;99.90;;;;;;7194659;32;20131;-66
2022/01/07 15:24:57;;;;;;;3.83;1.20;;;3.70;99.90;;;;;;7187794;32;20339;-65
2022/01/07 15:28:58;;;;;;;4.45;1.45;;;3.70;99.90;;;;;;7187293;32;20132;-66
2022/01/07 15:33:00;;;;;;;5.45;1.60;;;3.70;99.90;;;;;;7192628;32;20133;-65
2022/01/07 15:37:02;;;;;;;3.75;1.40;;;3.80;99.90;;;;;;7193490;32;20133;-66
2022/01/07 15:41:04;;;;;;;3.35;1.40;;;3.70;99.90;;;;;;7186229;32;20287;-66
2022/01/07 15:45:07;;;;;;;1.95;1.45;;;3.70;99.90;;;;;;7190799;32;20117;-66
2022/01/07 15:49:08;;;;;;;3.85;1.70;;;3.70;99.90;;;;;;7194517;32;20477;-67
2022/01/07 15:53:10;;;;;;;4.45;1.60;;;3.80;99.90;;;;;;7192766;32;20212;-64
2022/01/07 15:57:12;;;;;;;4.43;1.87;;;3.70;99.90;;;;;;7192042;32;20117;-64
2022/01/07 16:01:19;;;;;;;6.95;2.20;;;3.80;99.90;;;;;;7190084;32;20390;-64
2022/01/07 16:05:21;;;;;;;7.20;2.40;;;3.80;99.90;;;;;;7194703;32;20177;-64
2022/01/07 16:09:23;;;;;;;5.07;2.17;;;3.70;99.90;;;;;;7195180;32;20145;-64
2022/01/07 16:13:24;;;;;;;8.32;2.58;;;3.60;99.90;;;;;;7194592;32;20109;-64
2022/01/07 16:17:26;;;;;;;6.50;2.72;;;3.60;99.90;;;;;;7193496;32;20128;-64
2022/01/07 16:21:28;;;;;;;7.55;2.50;;;3.70;99.90;;;;;;7191600;32;20121;-64
2022/01/07 16:25:30;;;;;;;7.28;3.22;;;3.70;99.90;;;;;;7188648;32;20109;-64
2022/01/07 16:29:32;;;;;;;6.10;2.62;;;3.70;99.90;;;;;;7193939;32;20163;-63
2022/01/07 16:33:34;;;;;;;4.80;2.30;;;3.70;99.90;;;;;;7194105;32;20112;-63
2022/01/07 16:37:37;;;;;;;5.85;2.00;;;3.80;99.90;;;;;;7194487;32;20307;-63
2022/01/07 16:41:40;;;;;;;9.13;2.20;;;3.80;99.90;;;;;;7191354;32;20113;-64
2022/01/07 16:45:41;;;;;;;5.90;2.05;;;3.80;99.90;;;;;;7192713;32;20514;-64
2022/01/07 16:49:43;;;;;;;4.53;2.22;;;3.90;99.90;;;;;;7192635;32;20167;-64
2022/01/07 16:54:02;;;;;;;5.85;2.08;;;3.90;99.90;;;;;;7182312;32;20196;-64
2022/01/07 16:58:04;;;;;;;3.37;1.52;;;4.00;99.90;;;;;;7187989;32;20117;-64
2022/01/07 17:02:06;;;;;;;3.62;1.45;;;4.00;99.90;;;;;;7193720;32;20362;-63
2022/01/07 17:06:08;;;;;;;4.93;2.22;;;4.10;99.90;;;;;;7189663;32;20175;-64
2022/01/07 17:10:10;;;;;;;6.10;1.58;;;4.10;99.90;;;;;;7194189;32;20117;-63
2022/01/07 17:14:12;;;;;;;6.55;1.65;;;4.10;99.90;;;;;;7185395;32;20132;-64
2022/01/07 17:18:14;;;;;;;4.37;1.30;;;4.10;99.90;;;;;;7190041;32;20227;-63
2022/01/07 17:22:15;;;;;;;4.28;1.10;;;4.10;99.90;;;;;;7185459;32;20121;-63
2022/01/07 17:26:17;;;;;;;4.37;1.73;;;4.10;99.90;;;;;;7191063;32;20307;-63
2022/01/07 17:30:19;;;;;;;3.85;1.70;;;4.10;99.90;;;;;;7187257;32;20675;-64
2022/01/07 17:34:21;;;;;;;1.92;1.40;;;4.00;99.90;;;;;;7191084;33;20141;-64
2022/01/07 17:38:24;;;;;;;3.53;1.50;;;4.10;99.90;;;;;;7193433;33;20113;-64
2022/01/07 17:42:26;;;;;;;2.05;1.48;;;4.00;99.90;;;;;;7186425;33;20160;-64
2022/01/07 17:46:28;;;;;;;5.70;2.15;;;4.10;99.90;;;;;;7182383;32;20155;-63
2022/01/07 17:50:30;;;;;;;4.37;2.30;;;4.10;99.90;;;;;;7187880;33;20132;-63
2022/01/07 17:54:32;;;;;;;7.37;3.83;;;4.10;99.90;;;;;;7183956;32;20113;-63
2022/01/07 17:58:34;;;;;;;3.60;2.12;;;4.10;99.90;;;;;;7195558;32;20128;-63
2022/01/07 18:02:36;;;;;;;2.97;2.05;;;4.10;99.90;;;;;;7186023;32;20113;-63
2022/01/07 18:06:38;;;;;;;4.55;1.90;;;4.00;99.90;;;;;;7186538;32;20129;-63
2022/01/07 18:10:40;;;;;;;3.50;2.10;;;4.00;99.90;;;;;;7191686;32;20651;-63
2022/01/07 18:14:41;;;;;;;8.15;2.45;;;4.00;99.90;;;;;;7189872;32;20118;-63
2022/01/07 18:18:44;;;;;;;3.03;1.85;;;4.10;99.90;;;;;;7178007;32;20151;-63
2022/01/07 18:22:46;;;;;;;5.15;2.17;;;4.00;99.90;;;;;;7190383;32;20239;-63
2022/01/07 18:26:50;;;;;;;4.03;1.98;;;4.00;99.90;;;;;;7180817;32;20227;-63
2022/01/07 18:30:51;;;;;;;4.62;2.25;;;4.10;99.90;;;;;;7195838;32;20230;-63
2022/01/07 18:34:53;;;;;;;4.05;2.40;;;4.00;99.90;;;;;;7184856;32;20117;-62
2022/01/07 18:38:55;;;;;;;4.10;2.87;;;4.10;99.90;;;;;;7196454;32;20113;-63
2022/01/07 18:42:57;;;;;;;3.67;1.08;;;4.00;99.90;;;;;;7190055;32;20128;-63
2022/01/07 18:47:01;;;;;;;4.45;1.23;;;3.90;99.90;;;;;;7192151;32;20257;-63
2022/01/07 18:51:03;;;;;;;1.98;1.20;;;3.80;99.90;;;;;;7183571;32;20631;-63
2022/01/07 18:55:05;;;;;;;4.53;1.60;;;3.80;99.90;;;;;;7191146;32;20136;-64
2022/01/07 18:59:07;;;;;;;4.80;1.70;;;3.80;99.90;;;;;;7187087;32;20129;-63
2022/01/07 19:03:11;;;;;;;2.65;1.75;;;3.80;99.90;;;;;;7190103;32;20135;-63
2022/01/07 19:07:14;;;;;;;2.90;1.50;;;3.80;99.90;;;;;;7190068;32;20197;-64
2022/01/07 19:11:17;;;;;;;4.32;1.70;;;3.70;99.90;;;;;;7188726;32;20195;-63
2022/01/07 19:15:18;;;;;;;3.50;2.00;;;3.80;99.90;;;;;;7186126;32;20481;-64
2022/01/07 19:19:20;;;;;;;4.45;2.12;;;3.70;99.90;;;;;;7192316;32;20204;-65
2022/01/07 19:23:22;;;;;;;2.60;2.00;;;3.60;99.90;;;;;;7193247;32;20117;-65
2022/01/07 19:27:24;;;;;;;2.62;1.87;;;3.50;99.90;;;;;;7188614;32;20694;-65
2022/01/07 19:31:26;;;;;;;3.28;1.70;;;3.40;99.90;;;;;;7196685;32;20219;-66
2022/01/07 19:35:30;;;;;;;4.80;2.20;;;3.40;99.90;;;;;;7195065;32;20676;-66
2022/01/07 19:39:32;;;;;;;4.65;2.45;;;3.20;99.90;;;;;;7190979;32;20139;-64
2022/01/07 19:43:34;;;;;;;7.70;2.22;;;3.10;99.90;;;;;;7189434;32;20109;-63
2022/01/07 19:47:36;;;;;;;6.30;2.62;;;3.00;99.90;;;;;;7190877;32;20109;-65
2022/01/07 19:51:38;;;;;;;5.80;2.97;;;3.00;99.90;;;;;;7194504;32;20267;-66
2022/01/07 19:55:42;;;;;;;5.28;3.00;;;2.80;99.90;;;;;;7187321;32;20228;-65
2022/01/07 19:59:44;;;;;;;7.87;3.22;;;2.90;99.90;;;;;;7181648;32;20162;-66
2022/01/07 20:03:45;;;;;;;4.95;2.78;;;2.80;99.90;;;;;;7192934;32;20134;-66
2022/01/07 20:07:47;;;;;;;4.10;3.05;;;2.70;99.90;;;;;;7176981;32;20146;-67
2022/01/07 20:11:49;;;;;;;8.32;3.00;;;2.80;99.90;;;;;;7189316;32;20117;-67
2022/01/07 20:15:51;;;;;;;6.15;3.17;;;2.70;99.90;;;;;;7185963;32;20136;-66
2022/01/07 20:19:53;;;;;;;5.37;3.40;;;2.70;99.90;;;;;;7191108;32;20541;-66
2022/01/07 20:23:55;;;;;;;7.55;2.85;;;2.80;99.90;;;;;;7189254;32;20109;-67
2022/01/07 20:27:56;;;;;;;7.40;3.30;;;2.70;99.90;;;;;;7195930;32;20416;-66
2022/01/07 20:31:58;;;;;;;5.18;2.97;;;2.70;99.90;;;;;;7189732;32;20672;-67
2022/01/07 20:36:00;;;;;;;6.78;3.22;;;2.80;99.90;;;;;;7188821;32;20619;-66
2022/01/07 20:40:03;;;;;;;4.75;2.95;;;2.80;99.90;;;;;;7193951;32;20695;-66
2022/01/07 20:44:11;;;;;;;5.20;2.85;;;2.90;99.90;;;;;;7185494;32;20117;-66
2022/01/07 20:48:13;;;;;;;7.30;2.60;;;2.90;99.90;;;;;;7193384;32;20220;-66
2022/01/07 20:52:15;;;;;;;3.97;2.20;;;2.90;99.90;;;;;;7192151;32;20497;-66
2022/01/07 20:56:16;;;;;;;6.37;2.85;;;3.00;99.90;;;;;;7191115;32;20109;-67
2022/01/07 21:00:19;;;;;;;7.28;2.62;;;3.00;99.90;;;;;;7183036;32;20299;-68
2022/01/07 21:04:25;;;;;;;;;;;3.00;99.90;;;;;;7194099;32;20117;-66
2022/01/07 21:08:27;;;;;;;7.50;2.60;;;3.00;99.90;;;;;;7175608;32;20016;-65
2022/01/07 21:12:28;;;;;;;5.62;3.25;;;3.00;99.90;;;;;;7183802;32;20204;-66
2022/01/07 21:16:30;;;;;;;7.15;3.62;;;3.00;99.90;;;;;;7190193;32;20144;-65
2022/01/07 21:20:32;;;;;;;5.85;2.70;;;2.90;99.90;;;;;;7190792;32;20132;-68
2022/01/07 21:24:33;;;;;;;6.85;2.65;;;3.00;99.90;;;;;;7190086;32;20114;-67
2022/01/07 21:28:35;;;;;;;8.38;2.62;;;3.10;99.90;;;;;;7189344;32;20204;-65
2022/01/07 21:32:37;;;;;;;5.43;2.53;;;3.00;99.90;;;;;;7192143;32;20742;-65